Vincennes, Indiana
Current Conditions -  °F | °C
As of 12:53 AM on Sunday 23 Nov 2014 (Local Time) from KLWV Reporting Station
Clear Clear  
Wind Chill: 45°   Ceiling: Unl
Heat Index: 49°   Visibility: 10mi
Dew Point: 38°   Wind: 10mph
Humidity: 66%   Direction: 170°S
Pressure: 29.95"   Gusts: NA
Location:  38.68°N, 87.53°W
Report Text: KLWV 230653Z AUTO 17009KT 10SM CLR 09/03 A2995 RMK AO2 SLP143 T00940033
Loading
Personal Weather Stations






























Interactive Weather Map New forecast layout! Learn more

10-Day Weather Forecast

Advertisements
Track Severe Weather on mobile